Time;durP1;ratioP1;P1;durP2;ratioP2;P2;SDS_P1;SDS_P2;PMS_P1;PMS_P2;Temp;Humidity;BMP_temperature;BMP_pressure;BME280_temperature;BME280_humidity;BME280_pressure;Samples;Min_cycle;Max_cycle;Signal;HPM_P1;HPM_P2
2022/10/08 00:00:51;;;;;;;30.40;3.33;;;;;;;12.47;100.00;101534.88;5013127;28;20045;-40
2022/10/08 00:03:18;;;;;;;22.90;4.50;;;;;;;12.47;100.00;101537.56;5014363;28;20018;-39
2022/10/08 00:05:53;;;;;;;20.75;2.97;;;;;;;12.49;100.00;101538.22;4996605;28;20038;-40
2022/10/08 00:08:19;;;;;;;15.65;3.05;;;;;;;12.45;100.00;101534.22;5014142;28;20489;-40
2022/10/08 00:10:51;;;;;;;25.13;3.78;;;;;;;12.41;100.00;101540.97;5014021;28;20065;-39
2022/10/08 00:13:17;;;;;;;15.35;3.17;;;;;;;12.44;100.00;101540.63;5014074;28;20077;-40
2022/10/08 00:15:42;;;;;;;33.80;4.18;;;;;;;12.46;100.00;101538.59;5013629;28;20060;-40
2022/10/08 00:18:08;;;;;;;25.23;3.38;;;;;;;12.51;100.00;101540.78;5014155;28;20058;-39
2022/10/08 00:20:34;;;;;;;19.02;2.88;;;;;;;12.54;100.00;101544.97;5014045;28;20056;-40
2022/10/08 00:23:00;;;;;;;20.27;3.30;;;;;;;12.56;100.00;101549.19;5014102;28;20072;-39
2022/10/08 00:25:26;;;;;;;31.55;4.32;;;;;;;12.58;100.00;101541.72;5013848;28;20026;-39
2022/10/08 00:27:51;;;;;;;37.30;4.07;;;;;;;12.61;100.00;101543.22;5014056;28;20026;-43
2022/10/08 00:30:16;;;;;;;28.92;3.85;;;;;;;12.62;100.00;101553.03;5013508;28;20037;-42
2022/10/08 00:32:43;;;;;;;29.45;4.05;;;;;;;12.64;100.00;101551.00;5013561;28;20033;-43
2022/10/08 00:35:08;;;;;;;20.50;3.92;;;;;;;12.65;100.00;101553.50;5013911;28;20026;-42
2022/10/08 00:37:33;;;;;;;28.85;3.28;;;;;;;12.66;100.00;101549.75;5013812;28;20053;-41
2022/10/08 00:39:59;;;;;;;36.72;4.97;;;;;;;12.69;100.00;101548.56;5011959;28;20026;-40
2022/10/08 00:42:25;;;;;;;29.42;3.80;;;;;;;12.68;100.00;101553.13;4994393;28;20022;-40
2022/10/08 00:44:53;;;;;;;34.65;5.03;;;;;;;12.72;100.00;101553.63;5008030;28;20473;-40
2022/10/08 00:47:27;;;;;;;32.58;4.05;;;;;;;12.73;100.00;101556.16;5013656;28;20440;-40
2022/10/08 00:49:55;;;;;;;27.23;3.88;;;;;;;12.73;100.00;101550.75;5013634;28;20041;-39
2022/10/08 00:52:21;;;;;;;36.28;4.10;;;;;;;12.72;100.00;101559.03;4995773;28;20520;-40
2022/10/08 00:54:49;;;;;;;28.17;3.30;;;;;;;12.72;100.00;101556.34;4995672;28;20037;-39
2022/10/08 00:57:15;;;;;;;38.05;4.15;;;;;;;12.72;100.00;101551.78;5013350;28;20080;-39
2022/10/08 00:59:40;;;;;;;26.83;4.00;;;;;;;12.71;100.00;101547.38;5013113;28;20030;-40
2022/10/08 01:02:07;;;;;;;23.05;2.97;;;;;;;12.69;100.00;101537.75;5013106;28;20030;-39
2022/10/08 01:04:33;;;;;;;49.13;3.65;;;;;;;12.72;100.00;101542.84;5013523;28;20469;-40
2022/10/08 01:07:12;;;;;;;37.28;3.80;;;;;;;12.70;100.00;101540.31;4995538;28;20121;-40
2022/10/08 01:09:46;;;;;;;32.28;4.03;;;;;;;12.75;100.00;101547.88;4995231;28;20385;-41
2022/10/08 01:12:32;;;;;;;22.42;3.22;;;;;;;12.74;100.00;101538.94;4994223;28;20040;-40
2022/10/08 01:15:19;;;;;;;43.03;4.68;;;;;;;12.73;100.00;101545.34;4995048;28;20034;-40
2022/10/08 01:18:10;;;;;;;37.65;4.03;;;;;;;12.71;100.00;101539.28;5000315;28;20026;-40
2022/10/08 01:20:53;;;;;;;22.23;2.45;;;;;;;12.69;100.00;101524.25;5003331;28;20041;-39
2022/10/08 01:23:30;;;;;;;33.65;2.60;;;;;;;12.64;100.00;101530.22;5012921;28;20026;-40
2022/10/08 01:26:20;;;;;;;33.67;3.40;;;;;;;12.63;100.00;101525.00;4994899;28;20037;-40
2022/10/08 01:29:16;;;;;;;32.17;3.28;;;;;;;12.63;100.00;101522.28;4994780;28;20068;-40
2022/10/08 01:31:45;;;;;;;19.10;2.42;;;;;;;12.62;100.00;101523.31;4971132;28;20068;-41
2022/10/08 01:34:17;;;;;;;30.98;3.40;;;;;;;12.58;100.00;101524.69;4994636;28;20034;-41
2022/10/08 01:36:46;;;;;;;33.25;3.22;;;;;;;12.58;100.00;101524.69;4994987;28;20033;-40
2022/10/08 01:39:15;;;;;;;26.33;2.92;;;;;;;12.54;100.00;101523.38;4994964;28;20040;-41
2022/10/08 01:41:43;;;;;;;27.42;3.10;;;;;;;12.52;100.00;101524.38;4994609;28;20385;-40
2022/10/08 01:44:15;;;;;;;22.10;3.10;;;;;;;12.47;100.00;101524.06;4988186;28;20031;-40
2022/10/08 01:46:43;;;;;;;20.65;3.30;;;;;;;12.47;100.00;101512.44;4988963;28;20043;-40
2022/10/08 01:49:12;;;;;;;24.20;3.35;;;;;;;12.49;100.00;101522.03;4995789;28;20596;-40
2022/10/08 01:51:50;;;;;;;20.80;3.53;;;;;;;12.49;100.00;101523.91;4994607;28;20041;-40
2022/10/08 01:54:16;;;;;;;35.85;4.18;;;;;;;12.53;100.00;101527.91;4995219;28;20112;-40
2022/10/08 01:56:42;;;;;;;32.47;3.80;;;;;;;12.55;100.00;101525.03;4994437;28;20564;-40
2022/10/08 01:59:13;;;;;;;33.35;3.55;;;;;;;12.48;100.00;101520.38;5011978;28;20112;-40
2022/10/08 02:01:48;;;;;;;24.60;3.10;;;;;;;12.46;100.00;101527.78;4994596;28;20033;-41
2022/10/08 02:04:32;;;;;;;26.42;2.53;;;;;;;12.44;100.00;101531.69;4995207;28;20033;-40
2022/10/08 02:07:00;;;;;;;40.25;4.50;;;;;;;12.39;100.00;101528.69;5012101;28;20046;-40
2022/10/08 02:09:27;;;;;;;26.92;2.40;;;;;;;12.37;100.00;101531.53;5012699;28;20030;-40
2022/10/08 02:11:52;;;;;;;26.55;3.88;;;;;;;12.36;100.00;101535.28;4993371;28;20041;-41
2022/10/08 02:14:19;;;;;;;37.88;4.13;;;;;;;12.39;100.00;101534.91;5011962;28;20136;-41
2022/10/08 02:16:53;;;;;;;33.42;3.17;;;;;;;12.41;100.00;101535.59;5011693;28;20477;-40
2022/10/08 02:19:25;;;;;;;36.83;3.50;;;;;;;12.45;100.00;101536.06;4994752;28;20033;-40
2022/10/08 02:21:52;;;;;;;28.42;3.28;;;;;;;12.50;100.00;101539.91;5012022;28;20026;-40
2022/10/08 02:24:21;;;;;;;37.53;4.63;;;;;;;12.59;100.00;101529.09;5011486;28;20030;-40
2022/10/08 02:26:50;;;;;;;34.20;3.42;;;;;;;12.63;100.00;101539.31;5011445;28;20472;-40
2022/10/08 02:29:19;;;;;;;28.15;2.90;;;;;;;12.62;100.00;101547.63;4995278;28;20072;-41
2022/10/08 02:31:54;;;;;;;23.88;2.95;;;;;;;12.60;100.00;101549.66;4993815;28;20037;-41
2022/10/08 02:34:29;;;;;;;22.65;3.38;;;;;;;12.56;99.37;101542.91;5011632;28;20439;-40
2022/10/08 02:37:00;;;;;;;40.72;4.07;;;;;;;12.51;97.44;101533.50;4994113;28;20038;-40
2022/10/08 02:39:28;;;;;;;15.27;2.83;;;;;;;12.46;97.36;101538.59;4993616;28;20116;-41
2022/10/08 02:41:56;;;;;;;21.15;2.72;;;;;;;12.42;96.42;101539.13;4993589;28;20026;-41
2022/10/08 02:44:43;;;;;;;25.48;2.97;;;;;;;12.36;95.13;101532.56;5010961;28;20030;-41
2022/10/08 02:47:10;;;;;;;17.23;2.50;;;;;;;12.33;94.52;101540.19;4993723;28;20076;-42
2022/10/08 02:49:40;;;;;;;18.15;2.05;;;;;;;12.32;93.93;101542.03;4993832;28;20473;-41
2022/10/08 02:52:07;;;;;;;21.95;2.58;;;;;;;12.31;93.64;101548.44;5010984;28;20468;-41
2022/10/08 02:54:36;;;;;;;28.15;3.25;;;;;;;12.24;94.44;101550.16;5011174;28;20034;-41
2022/10/08 02:57:14;;;;;;;28.65;3.13;;;;;;;12.25;94.19;101551.88;4993584;28;20034;-41
2022/10/08 02:59:41;;;;;;;20.98;2.63;;;;;;;12.28;94.11;101551.50;4997456;28;20058;-41
2022/10/08 03:02:06;;;;;;;21.77;3.00;;;;;;;12.32;93.92;101552.81;4993490;28;20022;-40
2022/10/08 03:04:42;;;;;;;19.70;2.40;;;;;;;12.34;94.53;101556.19;4993810;28;20037;-41
2022/10/08 03:07:08;;;;;;;31.15;3.10;;;;;;;12.38;94.82;101565.63;4989705;28;20125;-40
2022/10/08 03:09:38;;;;;;;24.17;2.70;;;;;;;12.38;95.21;101568.34;4989671;28;20037;-40
2022/10/08 03:12:04;;;;;;;22.13;2.50;;;;;;;12.40;95.26;101569.00;5007373;28;20049;-40
2022/10/08 03:14:33;;;;;;;18.33;2.70;;;;;;;12.38;95.08;101568.34;5007950;28;20375;-40
2022/10/08 03:16:59;;;;;;;19.77;2.63;;;;;;;12.38;94.87;101573.72;5007759;28;20034;-41
2022/10/08 03:19:24;;;;;;;16.92;2.22;;;;;;;12.40;93.72;101566.31;5008038;28;20049;-42
2022/10/08 03:21:53;;;;;;;30.05;2.90;;;;;;;12.40;93.57;101569.00;4989702;28;20111;-41
2022/10/08 03:24:18;;;;;;;22.42;2.40;;;;;;;12.38;92.72;101576.44;5008170;28;20034;-41
2022/10/08 03:26:43;;;;;;;29.80;2.40;;;;;;;12.38;92.80;101573.72;5007746;28;20080;-40
2022/10/08 03:29:09;;;;;;;30.75;2.83;;;;;;;12.40;93.05;101577.09;4989653;28;20094;-41
2022/10/08 03:31:34;;;;;;;30.58;3.15;;;;;;;12.40;92.41;101584.34;5000928;28;20048;-42
2022/10/08 03:34:00;;;;;;;16.33;2.97;;;;;;;12.39;92.25;101583.50;5007037;28;20065;-42
2022/10/08 03:36:25;;;;;;;27.67;2.80;;;;;;;12.34;91.64;101582.34;5006968;28;20180;-42
2022/10/08 03:38:51;;;;;;;16.50;2.08;;;;;;;12.34;90.77;101587.75;5007606;28;20048;-43
2022/10/08 03:41:17;;;;;;;17.88;2.20;;;;;;;12.34;89.86;101595.84;5007676;28;20042;-40
2022/10/08 03:43:43;;;;;;;20.55;2.40;;;;;;;12.34;89.88;101585.88;5007240;28;20033;-42
2022/10/08 03:46:10;;;;;;;23.00;2.47;;;;;;;12.35;89.03;101593.00;5007232;28;20021;-42
2022/10/08 03:48:36;;;;;;;17.23;2.50;;;;;;;12.38;89.14;101595.34;5007707;28;20388;-40
2022/10/08 03:51:04;;;;;;;23.30;2.10;;;;;;;12.39;89.23;101594.31;4989711;28;20026;-41
2022/10/08 03:53:34;;;;;;;26.67;2.00;;;;;;;12.41;89.31;101602.25;5007073;28;20484;-40
2022/10/08 03:56:01;;;;;;;23.55;2.47;;;;;;;12.38;89.94;101600.72;5007118;28;20495;-43
2022/10/08 03:58:27;;;;;;;26.52;1.98;;;;;;;12.35;88.74;101606.47;5006996;28;20136;-42
2022/10/08 04:01:00;;;;;;;19.83;2.42;;;;;;;12.38;87.41;101605.28;4989274;28;20112;-40
2022/10/08 04:03:26;;;;;;;27.17;2.13;;;;;;;12.35;86.34;101611.00;4989673;28;20370;-41
2022/10/08 04:05:51;;;;;;;25.27;2.08;;;;;;;12.29;86.06;101608.00;5007395;28;20069;-40
2022/10/08 04:08:16;;;;;;;17.92;2.20;;;;;;;12.23;85.88;101618.66;5007105;28;20045;-40
2022/10/08 04:10:42;;;;;;;22.83;2.95;;;;;;;12.19;85.30;101617.31;5007411;28;20061;-40
2022/10/08 04:13:07;;;;;;;14.85;1.70;;;;;;;12.18;85.41;101621.88;5007261;28;20030;-41
2022/10/08 04:15:33;;;;;;;28.05;2.22;;;;;;;12.21;84.75;101620.69;5006650;28;20457;-40
2022/10/08 04:17:58;;;;;;;22.73;1.83;;;;;;;12.19;85.00;101620.00;5007418;28;20457;-40
2022/10/08 04:20:23;;;;;;;30.10;2.03;;;;;;;12.12;83.57;101619.88;5007368;28;20421;-41
2022/10/08 04:22:49;;;;;;;16.42;1.60;;;;;;;12.12;83.63;101630.69;5007613;28;20025;-40
2022/10/08 04:25:14;;;;;;;14.63;2.28;;;;;;;12.14;83.13;101625.09;5007102;28;20473;-40
2022/10/08 04:27:39;;;;;;;13.98;1.90;;;;;;;12.16;82.66;101628.47;5007659;28;20061;-41
2022/10/08 04:30:05;;;;;;;32.47;2.35;;;;;;;12.16;82.68;101623.06;5007513;28;20038;-39
2022/10/08 04:32:31;;;;;;;12.50;1.70;;;;;;;12.17;82.77;101630.16;5007115;28;20126;-41
2022/10/08 04:34:56;;;;;;;22.67;1.80;;;;;;;12.12;83.44;101633.38;5007392;28;20038;-41
2022/10/08 04:37:22;;;;;;;29.52;3.15;;;;;;;12.07;83.64;101630.34;5007380;28;20038;-42
2022/10/08 04:39:47;;;;;;;29.08;3.80;;;;;;;12.04;84.03;101636.09;5006722;28;20104;-40
2022/10/08 04:42:12;;;;;;;15.05;1.88;;;;;;;12.00;84.75;101635.56;5007391;28;20527;-41
2022/10/08 04:44:38;;;;;;;15.82;1.42;;;;;;;11.98;84.51;101637.63;5006408;28;20100;-40
2022/10/08 04:47:03;;;;;;;23.15;2.28;;;;;;;11.96;85.25;101638.81;4997580;28;20261;-41
2022/10/08 04:49:29;;;;;;;25.30;2.78;;;;;;;11.94;84.82;101632.75;5010116;28;20080;-41
2022/10/08 04:51:54;;;;;;;22.60;2.08;;;;;;;11.94;85.00;101646.22;5012713;28;20072;-40
2022/10/08 04:54:20;;;;;;;21.77;1.88;;;;;;;11.91;85.31;101647.41;5010309;28;20025;-40
2022/10/08 04:56:45;;;;;;;22.92;2.10;;;;;;;11.91;84.91;101651.97;5003158;28;20038;-41
2022/10/08 04:59:11;;;;;;;33.70;2.67;;;;;;;11.90;85.73;101650.25;5010524;28;20291;-39
2022/10/08 05:01:36;;;;;;;20.50;1.83;;;;;;;11.88;85.35;101653.16;4993446;28;20065;-39
2022/10/08 05:04:01;;;;;;;23.80;2.03;;;;;;;11.89;85.62;101654.81;5010622;28;20507;-42
2022/10/08 05:06:29;;;;;;;10.10;1.13;;;;;;;11.86;85.88;101658.69;5010353;28;20519;-43
2022/10/08 05:08:56;;;;;;;12.77;1.42;;;;;;;11.86;85.00;101660.56;5009952;28;20492;-41
2022/10/08 05:11:25;;;;;;;12.63;1.67;;;;;;;11.88;84.38;101666.63;5010289;28;20178;-41
2022/10/08 05:13:55;;;;;;;11.55;1.30;;;;;;;11.90;83.85;101670.00;5010088;28;20463;-41
2022/10/08 05:16:21;;;;;;;9.38;1.83;;;;;;;11.88;84.20;101673.91;5010760;28;20478;-40
2022/10/08 05:18:47;;;;;;;12.35;1.70;;;;;;;11.88;83.19;101672.03;5010346;28;20080;-41
2022/10/08 05:21:14;;;;;;;20.73;1.73;;;;;;;11.95;82.14;101680.28;5010763;28;20038;-40
2022/10/08 05:23:41;;;;;;;14.02;1.48;;;;;;;11.93;82.76;101687.69;5010375;28;20030;-42
2022/10/08 05:26:36;;;;;;;15.27;2.23;;;;;;;11.89;83.59;101692.59;5010631;28;20179;-41
2022/10/08 05:29:02;;;;;;;17.73;1.73;;;;;;;11.88;83.69;101685.53;5008001;28;20096;-41
2022/10/08 05:31:29;;;;;;;18.17;2.90;;;;;;;11.89;83.47;101689.88;4992217;28;20021;-41
2022/10/08 05:33:55;;;;;;;18.98;2.00;;;;;;;11.84;83.63;101689.53;5009391;28;20030;-40
2022/10/08 05:36:22;;;;;;;22.80;1.70;;;;;;;11.82;82.76;101689.72;5009410;28;20049;-41
2022/10/08 05:38:48;;;;;;;12.80;1.60;;;;;;;11.85;82.13;101702.00;5009889;28;20104;-42
2022/10/08 05:41:17;;;;;;;18.13;1.60;;;;;;;11.81;81.52;101706.88;5009858;28;20475;-41
2022/10/08 05:43:43;;;;;;;19.63;1.58;;;;;;;11.80;82.17;101699.81;5011654;28;20026;-40
2022/10/08 05:46:09;;;;;;;13.25;1.42;;;;;;;11.76;82.06;101705.72;5010705;28;20029;-42
2022/10/08 05:48:35;;;;;;;14.02;3.08;;;;;;;11.78;81.51;101706.38;5011261;28;20410;-40
2022/10/08 05:51:08;;;;;;;25.77;1.80;;;;;;;11.79;82.44;101716.16;5010428;28;20048;-40
2022/10/08 05:53:35;;;;;;;15.45;1.70;;;;;;;11.75;83.15;101722.91;5011932;28;20516;-40
2022/10/08 05:56:02;;;;;;;19.67;2.13;;;;;;;11.73;82.99;101723.06;5011833;28;20435;-40
2022/10/08 05:58:28;;;;;;;18.85;1.63;;;;;;;11.79;82.87;101724.25;5011543;28;20042;-39
2022/10/08 06:01:01;;;;;;;17.40;1.83;;;;;;;11.83;82.87;101733.69;5011804;28;20137;-41
2022/10/08 06:03:27;;;;;;;17.42;1.98;;;;;;;11.91;82.53;101738.28;5010812;28;20555;-40
2022/10/08 06:05:53;;;;;;;29.88;3.28;;;;;;;11.96;81.89;101744.84;5007952;28;20130;-43
2022/10/08 06:08:18;;;;;;;18.83;2.10;;;;;;;12.01;81.66;101747.06;5011974;28;20460;-41
2022/10/08 06:10:48;;;;;;;14.52;2.30;;;;;;;12.03;81.41;101753.97;5011953;28;20084;-41
2022/10/08 06:13:14;;;;;;;14.77;1.98;;;;;;;12.10;81.10;101759.53;5012103;28;20033;-42
2022/10/08 06:15:39;;;;;;;18.15;1.63;;;;;;;12.12;81.37;101759.34;5011013;28;20083;-41
2022/10/08 06:18:04;;;;;;;19.15;2.17;;;;;;;12.10;81.42;101762.22;5012273;28;20066;-41
2022/10/08 06:20:30;;;;;;;18.70;2.13;;;;;;;12.08;81.68;101778.59;5012994;28;20026;-41
2022/10/08 06:22:55;;;;;;;17.20;1.92;;;;;;;12.10;80.89;101777.56;4995646;28;20057;-41
2022/10/08 06:25:21;;;;;;;18.38;1.60;;;;;;;12.08;80.54;101789.38;5012743;28;20350;-41
2022/10/08 06:27:46;;;;;;;19.77;1.67;;;;;;;12.05;81.29;101789.69;5011722;28;20101;-41
2022/10/08 06:30:12;;;;;;;21.92;1.83;;;;;;;12.00;80.83;101788.53;5011485;28;20049;-41
2022/10/08 06:32:37;;;;;;;14.43;1.85;;;;;;;12.00;79.96;101796.63;5011361;28;20113;-42
2022/10/08 06:35:03;;;;;;;21.10;1.35;;;;;;;12.05;78.99;101795.09;4993936;28;20026;-41
2022/10/08 06:37:28;;;;;;;18.55;2.00;;;;;;;12.09;78.61;101806.41;5011704;28;20073;-41
2022/10/08 06:39:53;;;;;;;17.65;2.05;;;;;;;12.17;77.43;101817.19;5011583;28;20034;-42
2022/10/08 06:42:19;;;;;;;19.50;2.58;;;;;;;12.25;77.61;101813.66;5011713;28;20041;-41
2022/10/08 06:44:44;;;;;;;17.95;1.80;;;;;;;12.34;77.23;101817.19;4994031;28;20026;-41
2022/10/08 06:47:09;;;;;;;18.55;1.80;;;;;;;12.45;76.50;101820.41;5011421;28;20033;-42
2022/10/08 06:49:35;;;;;;;20.80;2.70;;;;;;;12.49;75.48;101818.19;5011478;28;20072;-41
2022/10/08 06:52:00;;;;;;;13.25;1.90;;;;;;;12.49;75.36;101829.84;5011230;28;20037;-41
2022/10/08 06:54:26;;;;;;;16.33;1.90;;;;;;;12.47;75.92;101826.47;5011378;28;20022;-41
2022/10/08 06:56:51;;;;;;;15.52;1.58;;;;;;;12.47;76.14;101821.06;5010958;28;20033;-41
2022/10/08 06:59:16;;;;;;;26.23;2.20;;;;;;;12.54;75.27;101828.50;5011096;28;20022;-41
2022/10/08 07:01:42;;;;;;;13.65;1.50;;;;;;;12.58;75.92;101833.34;5010977;28;20109;-41
2022/10/08 07:04:09;;;;;;;19.55;1.77;;;;;;;12.63;76.08;101839.09;5011140;28;20018;-41
2022/10/08 07:06:35;;;;;;;30.10;2.10;;;;;;;12.77;74.91;101842.97;5010965;28;20046;-41
2022/10/08 07:09:01;;;;;;;19.10;2.63;;;;;;;12.95;75.46;101835.50;5011056;28;20601;-41
2022/10/08 07:11:27;;;;;;;10.00;1.80;;;;;;;13.12;75.73;101835.44;5011353;28;20231;-41
2022/10/08 07:13:56;;;;;;;20.10;2.42;;;;;;;13.19;76.23;101844.50;5011036;28;20025;-41
2022/10/08 07:16:22;;;;;;;17.77;1.90;;;;;;;13.20;75.25;101851.63;5010758;28;20417;-41
2022/10/08 07:18:49;;;;;;;19.20;2.63;;;;;;;13.27;74.75;101858.06;4993391;28;20714;-40
2022/10/08 07:21:16;;;;;;;13.88;1.83;;;;;;;13.35;74.71;101862.59;5010944;28;20029;-41
2022/10/08 07:23:41;;;;;;;19.10;2.03;;;;;;;13.31;74.11;101856.69;5010293;28;20022;-40
2022/10/08 07:26:11;;;;;;;15.95;1.80;;;;;;;13.22;73.28;101868.53;5010640;28;20096;-43
2022/10/08 07:28:38;;;;;;;20.13;1.90;;;;;;;13.17;73.77;101870.91;5011080;28;20457;-41
2022/10/08 07:31:10;;;;;;;21.25;2.05;;;;;;;13.81;73.38;101874.34;5010630;28;20022;-42
2022/10/08 07:33:36;;;;;;;20.73;2.83;;;;;;;14.81;68.66;101891.56;4993158;28;20460;-42
2022/10/08 07:36:09;;;;;;;20.48;2.30;;;;;;;15.86;65.27;101883.22;5010816;28;20109;-42
2022/10/08 07:38:34;;;;;;;15.07;1.92;;;;;;;16.69;60.75;101891.72;5010461;28;20088;-41
2022/10/08 07:41:00;;;;;;;16.08;2.05;;;;;;;17.34;58.32;101892.41;5010662;28;20018;-42
2022/10/08 07:43:25;;;;;;;9.63;1.55;;;;;;;18.49;55.63;101901.59;5010426;28;20026;-42
2022/10/08 07:45:50;;;;;;;19.17;2.55;;;;;;;19.03;53.06;101906.00;5010508;28;20022;-42
2022/10/08 07:48:18;;;;;;;18.85;2.80;;;;;;;19.20;51.37;101921.94;5010549;28;20105;-42
2022/10/08 07:50:44;;;;;;;14.38;2.97;;;;;;;19.17;51.24;101911.44;5010527;28;20029;-42
2022/10/08 07:53:09;;;;;;;12.85;1.73;;;;;;;19.54;48.55;101912.63;5010312;28;20030;-44
2022/10/08 07:55:34;;;;;;;15.07;1.60;;;;;;;19.87;49.17;101920.69;5010385;28;20022;-42
2022/10/08 07:58:00;;;;;;;12.55;1.98;;;;;;;20.21;47.01;101924.06;5010335;28;20026;-43
2022/10/08 08:00:25;;;;;;;17.63;1.65;;;;;;;20.81;45.51;101938.19;5010374;28;20072;-43
2022/10/08 08:02:50;;;;;;;11.15;1.83;;;;;;;20.63;46.11;101940.84;5010432;28;20037;-42
2022/10/08 08:05:16;;;;;;;13.20;1.58;;;;;;;20.80;45.03;101944.72;5010475;28;20034;-41
2022/10/08 08:07:41;;;;;;;12.20;2.13;;;;;;;20.87;45.47;101943.81;5009756;28;20377;-42
2022/10/08 08:10:07;;;;;;;21.75;1.77;;;;;;;21.19;46.33;101939.94;5010151;28;20064;-41
2022/10/08 08:12:32;;;;;;;13.23;1.95;;;;;;;21.37;45.32;101946.50;5010058;28;20061;-42
2022/10/08 08:14:57;;;;;;;11.65;1.70;;;;;;;21.56;43.60;101950.94;5009844;28;20080;-41
2022/10/08 08:17:23;;;;;;;15.15;1.80;;;;;;;21.56;42.99;101961.91;5010339;28;20026;-42
2022/10/08 08:19:48;;;;;;;9.15;1.85;;;;;;;21.70;43.71;101966.16;5010019;28;20029;-41
2022/10/08 08:22:13;;;;;;;13.57;2.13;;;;;;;22.28;42.98;101967.56;5012977;28;20030;-41
2022/10/08 08:24:39;;;;;;;8.52;1.98;;;;;;;21.03;43.77;101967.88;4996109;28;20658;-41
2022/10/08 08:27:04;;;;;;;13.48;1.77;;;;;;;20.26;45.01;101965.25;5013855;28;20032;-41
2022/10/08 08:29:30;;;;;;;12.25;1.88;;;;;;;19.91;46.84;101967.56;5013607;28;20542;-43
2022/10/08 08:31:55;;;;;;;13.88;1.85;;;;;;;20.70;45.03;101981.84;5013809;28;20432;-42
2022/10/08 08:34:22;;;;;;;10.27;1.83;;;;;;;20.98;46.59;101984.13;5013475;28;20033;-42
2022/10/08 08:36:49;;;;;;;10.13;1.92;;;;;;;21.58;44.30;101998.13;5013496;28;20396;-42
2022/10/08 08:39:23;;;;;;;10.27;1.80;;;;;;;21.22;44.00;101990.66;4995989;28;20037;-42
2022/10/08 08:42:03;;;;;;;14.57;2.00;;;;;;;19.87;46.39;101991.72;5013579;28;20129;-42
2022/10/08 08:44:33;;;;;;;13.73;2.10;;;;;;;19.65;48.41;101993.03;5013306;28;20022;-41
2022/10/08 08:47:23;;;;;;;15.90;2.22;;;;;;;20.24;47.65;102004.81;5013516;28;20033;-40
2022/10/08 08:49:54;;;;;;;10.85;1.65;;;;;;;20.45;47.35;102017.31;4995872;28;20026;-41
2022/10/08 08:52:25;;;;;;;14.27;2.13;;;;;;;20.53;47.54;102009.69;5013177;28;20025;-41
2022/10/08 08:54:52;;;;;;;19.65;2.13;;;;;;;20.82;45.51;102012.88;5013079;28;20052;-42
2022/10/08 08:57:39;;;;;;;13.23;1.83;;;;;;;20.08;48.00;102019.81;5013713;28;20033;-41
2022/10/08 09:00:21;;;;;;;12.32;1.95;;;;;;;19.64;49.44;102021.38;4995924;28;20285;-41
2022/10/08 09:02:54;;;;;;;13.02;1.80;;;;;;;19.77;48.50;102026.84;4995570;28;20038;-42
2022/10/08 09:05:21;;;;;;;15.70;2.25;;;;;;;19.26;48.92;102024.81;4995557;28;20017;-42
2022/10/08 09:08:12;;;;;;;8.45;2.00;;;;;;;18.86;50.43;102025.63;4995262;28;20046;-42
2022/10/08 09:10:43;;;;;;;14.32;2.03;;;;;;;18.50;50.22;102025.94;4995540;28;20532;-42
2022/10/08 09:13:20;;;;;;;8.25;1.83;;;;;;;18.09;51.48;102045.94;4995584;28;20030;-42
2022/10/08 09:15:45;;;;;;;16.35;1.77;;;;;;;17.45;52.74;102033.38;5013207;28;20034;-41
2022/10/08 09:18:13;;;;;;;9.55;1.73;;;;;;;17.11;54.23;102045.03;5012961;28;20331;-41
2022/10/08 09:20:39;;;;;;;11.75;1.60;;;;;;;16.75;55.89;102045.09;5012991;28;20026;-42
2022/10/08 09:23:13;;;;;;;7.35;1.27;;;;;;;16.55;56.69;102048.41;5013449;28;20469;-41
2022/10/08 09:25:39;;;;;;;17.77;2.10;;;;;;;16.54;57.42;102045.91;4995532;28;20076;-41
2022/10/08 09:28:04;;;;;;;28.58;3.15;;;;;;;16.64;58.30;102062.72;5012947;28;20053;-41
2022/10/08 09:30:39;;;;;;;11.18;1.70;;;;;;;16.55;57.95;102053.84;5012367;28;20026;-42
2022/10/08 09:33:11;;;;;;;12.48;1.52;;;;;;;16.59;56.03;102057.06;5011668;28;20129;-41
2022/10/08 09:35:42;;;;;;;16.77;1.60;;;;;;;16.44;55.96;102057.06;4995062;28;20454;-41
2022/10/08 09:38:18;;;;;;;11.98;1.73;;;;;;;16.45;57.09;102069.63;5012602;28;20026;-42
2022/10/08 09:40:59;;;;;;;14.38;1.70;;;;;;;16.49;57.35;102070.09;4994698;28;20117;-41
2022/10/08 09:43:24;;;;;;;16.27;1.90;;;;;;;16.72;57.75;102076.22;5012931;28;20030;-41
2022/10/08 09:45:50;;;;;;;11.93;1.52;;;;;;;16.89;57.86;102076.84;5012771;28;20389;-41
2022/10/08 09:48:26;;;;;;;13.48;1.60;;;;;;;16.87;56.82;102070.75;5012625;28;20034;-41
2022/10/08 09:50:58;;;;;;;14.75;1.88;;;;;;;16.75;56.03;102075.00;5012104;28;20056;-41
2022/10/08 09:53:27;;;;;;;9.70;1.48;;;;;;;16.36;57.16;102071.63;5011986;28;20034;-41
2022/10/08 09:56:03;;;;;;;13.60;1.80;;;;;;;16.37;57.19;102083.31;5012340;28;20022;-41
2022/10/08 09:58:31;;;;;;;15.95;1.80;;;;;;;16.23;57.87;102083.16;4995009;28;20029;-42
2022/10/08 10:01:01;;;;;;;13.45;1.73;;;;;;;16.10;59.26;102084.84;4994556;28;20483;-40
2022/10/08 10:03:26;;;;;;;11.40;1.58;;;;;;;16.11;58.52;102091.97;4994859;28;20040;-44
2022/10/08 10:05:53;;;;;;;16.13;1.98;;;;;;;16.11;58.84;102090.09;5012285;28;20319;-42
2022/10/08 10:08:42;;;;;;;9.65;1.60;;;;;;;16.31;59.47;102100.38;4973005;28;20047;-42
2022/10/08 10:11:10;;;;;;;12.57;1.73;;;;;;;16.75;58.45;102103.00;4972991;28;20023;-40
2022/10/08 10:13:37;;;;;;;12.32;1.52;;;;;;;17.02;56.91;102106.03;4971291;28;20023;-41
2022/10/08 10:16:07;;;;;;;10.60;1.65;;;;;;;17.01;55.39;102112.50;4971605;28;20470;-43
2022/10/08 10:18:48;;;;;;;12.20;1.67;;;;;;;16.65;55.75;102107.91;4971836;28;20062;-41
2022/10/08 10:21:18;;;;;;;12.90;1.88;;;;;;;16.26;57.61;102106.38;4971067;28;20517;-42
2022/10/08 10:23:49;;;;;;;9.90;1.65;;;;;;;16.08;59.70;102108.63;4971697;28;20081;-42
2022/10/08 10:26:20;;;;;;;13.02;1.60;;;;;;;16.00;59.32;102110.41;4972049;28;20061;-43
2022/10/08 10:28:56;;;;;;;11.40;2.13;;;;;;;15.86;60.55;102115.84;4973265;28;20034;-42
2022/10/08 10:31:47;;;;;;;9.10;1.38;;;;;;;15.74;59.78;102120.88;4972065;28;20101;-42
2022/10/08 10:34:29;;;;;;;11.65;1.88;;;;;;;15.77;59.56;102124.06;4972084;28;20082;-41
2022/10/08 10:37:00;;;;;;;16.40;1.80;;;;;;;15.74;58.83;102124.41;4971283;28;20027;-42
2022/10/08 10:39:40;;;;;;;13.05;1.58;;;;;;;15.56;58.62;102127.47;4970248;28;20126;-40
2022/10/08 10:42:13;;;;;;;12.07;2.08;;;;;;;15.65;58.83;102132.81;4972245;28;20106;-40
2022/10/08 10:44:52;;;;;;;18.70;1.67;;;;;;;15.52;58.72;102128.84;4971797;28;20026;-41
2022/10/08 10:47:21;;;;;;;14.35;1.77;;;;;;;15.59;59.12;102140.66;4972166;28;20151;-41
2022/10/08 10:49:47;;;;;;;9.75;1.50;;;;;;;15.61;58.50;102136.91;4972046;28;20432;-42
2022/10/08 10:52:21;;;;;;;13.52;1.67;;;;;;;15.52;59.69;102138.88;4972053;28;20038;-42
2022/10/08 10:55:05;;;;;;;17.00;1.90;;;;;;;15.55;59.00;102133.91;4972258;28;20125;-42
2022/10/08 10:58:06;;;;;;;10.45;1.45;;;;;;;15.50;58.45;102141.75;4972063;28;20093;-41
2022/10/08 11:00:50;;;;;;;10.48;1.80;;;;;;;15.50;59.63;102144.47;4971143;28;20057;-42
2022/10/08 11:03:21;;;;;;;12.00;1.40;;;;;;;15.61;58.69;102139.63;4972019;28;20038;-41
2022/10/08 11:05:51;;;;;;;11.85;2.03;;;;;;;15.67;58.02;102147.06;4971794;28;20039;-41
2022/10/08 11:08:19;;;;;;;26.88;1.80;;;;;;;15.70;57.44;102152.13;5007623;28;20050;-41
2022/10/08 11:10:47;;;;;;;16.38;2.33;;;;;;;15.79;58.76;102154.56;5011018;28;20029;-41
2022/10/08 11:13:27;;;;;;;16.58;1.98;;;;;;;16.00;57.81;102151.13;5011068;28;20080;-41
2022/10/08 11:16:07;;;;;;;13.20;2.10;;;;;;;16.14;56.78;102148.63;5011311;28;20050;-41
2022/10/08 11:18:42;;;;;;;14.55;2.35;;;;;;;16.27;55.60;102161.53;5010933;28;20033;-41
2022/10/08 11:21:10;;;;;;;13.00;1.65;;;;;;;16.36;56.15;102158.56;5010923;28;20054;-40
2022/10/08 11:24:08;;;;;;;12.98;1.52;;;;;;;16.57;56.97;102165.09;5010852;28;20069;-41
2022/10/08 11:26:38;;;;;;;;;;;;;;;16.58;57.77;102156.75;4966951;28;20042;-43